createdAt,value
2019-02-16T00:01:12.174Z,21.78
2019-02-16T00:03:41.147Z,21.76
2019-02-16T00:06:10.098Z,21.73
2019-02-16T00:08:39.055Z,21.69
2019-02-16T00:11:07.982Z,21.66
2019-02-16T00:13:36.950Z,21.65
2019-02-16T00:16:05.873Z,21.60
2019-02-16T00:18:34.836Z,21.58
2019-02-16T00:21:04.458Z,21.54
2019-02-16T00:23:33.600Z,21.51
2019-02-16T00:26:02.533Z,21.48
2019-02-16T00:28:31.493Z,21.46
2019-02-16T00:31:00.458Z,21.44
2019-02-16T00:33:29.403Z,21.42
2019-02-16T00:35:58.329Z,21.39
2019-02-16T00:38:27.260Z,21.36
2019-02-16T00:40:56.194Z,21.33
2019-02-16T00:43:25.123Z,21.31
2019-02-16T00:45:54.060Z,21.27
2019-02-16T00:48:22.994Z,21.26
2019-02-16T00:50:51.993Z,21.22
2019-02-16T00:53:20.924Z,21.21
2019-02-16T00:55:49.870Z,21.19
2019-02-16T00:58:18.804Z,21.17
2019-02-16T01:00:47.790Z,21.14
2019-02-16T01:03:16.698Z,21.11
2019-02-16T01:05:45.608Z,21.08
2019-02-16T01:08:14.572Z,21.06
2019-02-16T01:10:43.657Z,21.03
2019-02-16T01:13:12.634Z,21.02
2019-02-16T01:15:41.583Z,20.99
2019-02-16T01:18:10.576Z,20.97
2019-02-16T01:20:39.498Z,20.93
2019-02-16T01:23:08.443Z,20.92
2019-02-16T01:25:37.374Z,20.90
2019-02-16T01:28:06.314Z,20.87
2019-02-16T01:30:35.297Z,20.86
2019-02-16T01:33:04.237Z,20.83
2019-02-16T01:35:33.200Z,20.82
2019-02-16T01:38:02.176Z,20.78
2019-02-16T01:40:31.084Z,20.76
2019-02-16T01:43:00.032Z,20.74
2019-02-16T01:45:29.020Z,20.72
2019-02-16T01:47:57.950Z,20.70
2019-02-16T01:50:26.884Z,20.69
2019-02-16T01:52:55.845Z,20.66
2019-02-16T01:55:24.805Z,20.66
2019-02-16T01:57:53.769Z,20.64
2019-02-16T02:00:22.662Z,20.61
2019-02-16T02:02:51.628Z,20.59
2019-02-16T02:05:20.619Z,20.56
2019-02-16T02:07:49.561Z,20.54
2019-02-16T02:10:18.509Z,20.53
2019-02-16T02:12:47.474Z,20.51
2019-02-16T02:15:16.451Z,20.49
2019-02-16T02:17:45.422Z,20.47
2019-02-16T02:20:14.404Z,20.46
2019-02-16T02:22:43.340Z,20.43
2019-02-16T02:25:12.314Z,20.43
2019-02-16T02:27:41.317Z,20.41
2019-02-16T02:30:10.751Z,20.40
2019-02-16T02:32:39.713Z,20.38
2019-02-16T02:35:08.722Z,20.37
2019-02-16T02:37:37.664Z,20.37
2019-02-16T02:40:06.678Z,20.38
2019-02-16T02:42:35.634Z,20.37
2019-02-16T02:45:04.906Z,20.37
2019-02-16T02:47:33.859Z,20.37
2019-02-16T02:50:02.842Z,20.38
2019-02-16T02:52:31.802Z,20.36
2019-02-16T02:55:00.828Z,20.37
2019-02-16T02:57:29.767Z,20.35
2019-02-16T02:59:58.753Z,20.35
2019-02-16T03:02:27.735Z,20.34
2019-02-16T03:04:56.713Z,20.33
2019-02-16T03:07:25.659Z,20.30
2019-02-16T03:09:54.645Z,20.29
2019-02-16T03:12:23.603Z,20.27
2019-02-16T03:14:52.590Z,20.26
2019-02-16T03:17:21.530Z,20.24
2019-02-16T03:19:50.489Z,20.22
2019-02-16T03:22:19.436Z,20.20
2019-02-16T03:24:48.337Z,20.19
2019-02-16T03:28:01.791Z,20.16
2019-02-16T03:31:07.294Z,20.15
2019-02-16T03:33:47.716Z,20.12
2019-02-16T03:37:03.426Z,20.10
2019-02-16T03:39:36.245Z,20.08
2019-02-16T03:42:05.253Z,20.05
2019-02-16T03:44:34.226Z,20.04
2019-02-16T03:47:03.193Z,20.02
2019-02-16T03:49:32.143Z,20.00
2019-02-16T03:52:01.084Z,19.98
2019-02-16T03:54:30.006Z,19.96
2019-02-16T03:56:58.966Z,19.94
2019-02-16T03:59:27.855Z,19.94
2019-02-16T04:01:56.772Z,19.94
2019-02-16T04:04:25.771Z,19.91
2019-02-16T04:06:54.731Z,19.90
2019-02-16T04:09:23.582Z,19.89
2019-02-16T04:11:52.531Z,19.87
2019-02-16T04:14:21.548Z,19.85
2019-02-16T04:16:50.472Z,19.84
2019-02-16T04:19:19.431Z,19.83
2019-02-16T04:21:48.364Z,19.83
2019-02-16T04:24:17.456Z,19.82
2019-02-16T04:26:46.395Z,19.81
2019-02-16T04:29:15.385Z,19.80
2019-02-16T04:31:44.320Z,19.79
2019-02-16T04:34:13.282Z,19.80
2019-02-16T04:36:42.219Z,19.80
2019-02-16T04:39:11.298Z,19.81
2019-02-16T04:41:40.221Z,19.81
2019-02-16T04:44:09.179Z,19.82
2019-02-16T04:46:38.134Z,19.82
2019-02-16T04:49:07.050Z,19.80
2019-02-16T04:51:35.991Z,19.79
2019-02-16T04:54:04.930Z,19.78
2019-02-16T04:56:33.905Z,19.77
2019-02-16T04:59:02.847Z,19.76
2019-02-16T05:01:31.793Z,19.73
2019-02-16T05:04:00.739Z,19.73
2019-02-16T05:06:29.683Z,19.71
2019-02-16T05:08:58.671Z,19.70
2019-02-16T05:11:27.611Z,19.67
2019-02-16T05:13:56.557Z,19.66
2019-02-16T05:16:25.500Z,19.65
2019-02-16T05:18:54.458Z,19.62
2019-02-16T05:21:23.387Z,19.61
2019-02-16T05:23:52.350Z,19.59
2019-02-16T05:26:21.179Z,19.59
2019-02-16T05:28:50.134Z,19.56
2019-02-16T05:31:19.064Z,19.55
2019-02-16T05:33:48.096Z,19.53
2019-02-16T05:36:16.978Z,19.52
2019-02-16T05:38:45.988Z,19.52
2019-02-16T05:41:14.918Z,19.48
2019-02-16T05:43:43.889Z,19.47
2019-02-16T05:46:12.862Z,19.47
2019-02-16T05:48:41.769Z,19.46
2019-02-16T05:51:10.725Z,19.44
2019-02-16T05:53:39.650Z,19.43
2019-02-16T05:56:08.584Z,19.41
2019-02-16T05:58:37.502Z,19.40
2019-02-16T06:01:06.440Z,19.40
2019-02-16T06:03:35.384Z,19.38
2019-02-16T06:06:04.301Z,19.38
2019-02-16T06:08:33.268Z,19.36
2019-02-16T06:11:03.197Z,19.36
2019-02-16T06:13:32.497Z,19.37
2019-02-16T06:16:01.425Z,19.35
2019-02-16T06:18:30.367Z,19.35
2019-02-16T06:20:59.289Z,19.33
2019-02-16T06:23:28.289Z,19.35
2019-02-16T06:25:57.216Z,19.34
2019-02-16T06:28:26.184Z,19.34
2019-02-16T06:30:55.102Z,19.33
2019-02-16T06:33:24.074Z,19.34
2019-02-16T06:36:00.277Z,19.32
2019-02-16T06:38:29.239Z,19.32
2019-02-16T06:40:58.195Z,19.32
2019-02-16T06:43:27.126Z,19.32
2019-02-16T06:45:56.080Z,19.31
2019-02-16T06:48:25.029Z,19.31
2019-02-16T06:50:53.926Z,19.31
2019-02-16T06:53:22.849Z,19.31
2019-02-16T06:55:58.832Z,19.30
2019-02-16T06:58:27.780Z,19.28
2019-02-16T07:00:56.729Z,19.27
2019-02-16T07:03:25.741Z,19.28
2019-02-16T07:05:54.695Z,19.27
2019-02-16T07:08:23.637Z,19.25
2019-02-16T07:10:52.568Z,19.25
2019-02-16T07:13:21.519Z,19.25
2019-02-16T07:16:07.953Z,19.27
2019-02-16T07:19:04.949Z,19.32
2019-02-16T07:21:33.875Z,19.36
2019-02-16T07:24:02.843Z,19.41
2019-02-16T07:26:31.779Z,19.46
2019-02-16T07:29:00.738Z,19.51
2019-02-16T07:31:29.677Z,19.57
2019-02-16T07:33:58.636Z,19.62
2019-02-16T07:36:27.601Z,19.66
2019-02-16T07:38:56.554Z,19.72
2019-02-16T07:41:25.540Z,19.81
2019-02-16T07:44:22.325Z,19.91
2019-02-16T07:47:12.974Z,20.02
2019-02-16T07:49:52.958Z,20.43
2019-02-16T07:52:39.620Z,20.74
2019-02-16T07:55:26.117Z,20.88
2019-02-16T07:58:03.995Z,20.87
2019-02-16T08:00:44.473Z,20.81
2019-02-16T08:03:41.440Z,20.75
2019-02-16T08:06:38.558Z,20.75
2019-02-16T08:09:29.211Z,20.75
2019-02-16T08:12:26.318Z,20.74
2019-02-16T08:15:09.637Z,20.72
2019-02-16T08:17:46.705Z,20.74
2019-02-16T08:20:37.846Z,20.73
2019-02-16T08:23:25.785Z,20.72
2019-02-16T08:26:02.274Z,20.70
2019-02-16T08:28:48.961Z,20.71
2019-02-16T08:31:26.842Z,20.74
2019-02-16T08:34:15.833Z,20.77
2019-02-16T08:37:06.734Z,20.78
2019-02-16T08:39:54.633Z,20.79
2019-02-16T08:42:52.035Z,20.75
2019-02-16T08:45:39.928Z,20.67
2019-02-16T08:48:24.664Z,20.57
2019-02-16T08:51:11.003Z,20.43
2019-02-16T08:53:56.580Z,20.36
2019-02-16T08:56:34.685Z,20.26
2019-02-16T08:59:21.253Z,20.15
2019-02-16T09:01:57.757Z,20.09
2019-02-16T09:04:35.289Z,20.03
2019-02-16T09:07:32.183Z,19.99
2019-02-16T09:10:38.594Z,19.97
2019-02-16T09:13:25.077Z,19.95
2019-02-16T09:16:14.336Z,19.92
2019-02-16T09:18:57.119Z,19.93
2019-02-16T09:21:53.957Z,19.97
2019-02-16T09:24:40.438Z,20.01
2019-02-16T09:27:46.660Z,20.07
2019-02-16T09:30:46.743Z,20.10
2019-02-16T09:33:46.422Z,20.16
2019-02-16T09:36:31.571Z,20.18
2019-02-16T09:39:22.885Z,20.23
2019-02-16T09:41:57.341Z,20.26
2019-02-16T09:44:48.268Z,20.29
2019-02-16T09:47:36.176Z,20.34
2019-02-16T09:50:20.823Z,20.39
2019-02-16T09:53:17.746Z,20.40
2019-02-16T09:55:54.900Z,20.40
2019-02-16T09:58:48.727Z,20.43
2019-02-16T10:01:39.782Z,20.45
2019-02-16T10:04:14.137Z,20.46
2019-02-16T10:07:11.303Z,20.51
2019-02-16T10:10:08.390Z,20.52
2019-02-16T10:12:56.308Z,20.56
2019-02-16T10:15:43.054Z,20.59
2019-02-16T10:18:37.130Z,20.58
2019-02-16T10:21:19.093Z,20.58
2019-02-16T10:24:05.730Z,20.54
2019-02-16T10:26:50.804Z,20.54
2019-02-16T10:29:41.498Z,20.62
2019-02-16T10:32:24.332Z,20.60
2019-02-16T10:35:03.333Z,20.61
2019-02-16T10:37:54.043Z,20.56
2019-02-16T10:41:01.504Z,20.48
2019-02-16T10:43:55.513Z,20.50
2019-02-16T10:46:43.460Z,20.49
2019-02-16T10:49:24.716Z,20.47
2019-02-16T10:52:02.485Z,20.48
2019-02-16T10:54:59.547Z,20.43
2019-02-16T10:57:53.507Z,20.47
2019-02-16T11:00:35.348Z,20.46
2019-02-16T11:03:23.142Z,20.48
2019-02-16T11:06:11.650Z,20.48
2019-02-16T11:08:51.158Z,20.48
2019-02-16T11:11:39.042Z,20.45
2019-02-16T11:14:27.052Z,20.41
2019-02-16T11:17:13.766Z,20.41
2019-02-16T11:19:57.303Z,20.41
2019-02-16T11:22:46.386Z,20.45
2019-02-16T11:25:32.971Z,20.41
2019-02-16T11:28:26.766Z,20.42
2019-02-16T11:31:11.415Z,20.38
2019-02-16T11:33:56.341Z,20.39
2019-02-16T11:36:40.927Z,20.41
2019-02-16T11:39:31.711Z,20.39
2019-02-16T11:42:06.298Z,20.38
2019-02-16T11:44:50.057Z,20.33
2019-02-16T11:47:50.171Z,20.36
2019-02-16T11:50:29.567Z,20.38
2019-02-16T11:53:23.801Z,20.38
2019-02-16T11:56:04.937Z,20.37
2019-02-16T11:58:51.655Z,20.38
2019-02-16T12:01:37.407Z,20.35
2019-02-16T12:04:17.225Z,20.37
2019-02-16T12:07:08.205Z,20.38
2019-02-16T12:09:53.397Z,20.37
2019-02-16T12:12:34.842Z,20.34
2019-02-16T12:15:28.980Z,20.26
2019-02-16T12:18:19.738Z,20.28
2019-02-16T12:21:13.628Z,20.31
2019-02-16T12:24:04.420Z,20.32
2019-02-16T12:26:45.143Z,20.33
2019-02-16T12:29:30.634Z,20.34
2019-02-16T12:32:15.022Z,20.34
2019-02-16T12:34:53.344Z,20.37
2019-02-16T12:37:40.318Z,20.37
2019-02-16T12:40:34.213Z,20.36
2019-02-16T12:43:20.980Z,20.40
2019-02-16T12:46:20.918Z,20.42
2019-02-16T12:49:12.574Z,20.45
2019-02-16T12:52:03.325Z,20.46
2019-02-16T12:54:49.864Z,20.47
2019-02-16T12:57:25.114Z,20.45
2019-02-16T13:00:22.277Z,20.42
2019-02-16T13:03:22.037Z,20.38
2019-02-16T13:06:25.173Z,20.36
2019-02-16T13:09:12.722Z,20.34
2019-02-16T13:12:02.144Z,20.32
2019-02-16T13:14:53.047Z,20.29
2019-02-16T13:17:49.965Z,20.28
2019-02-16T13:20:39.688Z,20.26
2019-02-16T13:23:27.593Z,20.25
2019-02-16T13:26:08.592Z,20.24
2019-02-16T13:29:02.863Z,20.24
2019-02-16T13:31:41.907Z,20.23
2019-02-16T13:34:19.928Z,20.23
2019-02-16T13:37:06.226Z,20.19
2019-02-16T13:40:00.302Z,20.16
2019-02-16T13:42:48.253Z,20.15
2019-02-16T13:45:23.328Z,20.14
2019-02-16T13:48:11.487Z,20.09
2019-02-16T13:51:02.498Z,20.09
2019-02-16T13:53:53.465Z,20.08
2019-02-16T13:56:37.455Z,20.06
2019-02-16T13:59:25.435Z,20.03
2019-02-16T14:02:16.876Z,19.99
2019-02-16T14:05:09.891Z,19.96
2019-02-16T14:08:09.853Z,19.92
2019-02-16T14:11:13.017Z,19.90
2019-02-16T14:14:01.061Z,19.89
2019-02-16T14:16:45.603Z,19.84
2019-02-16T14:19:14.892Z,19.82
2019-02-16T14:21:44.288Z,19.80
2019-02-16T14:24:13.505Z,19.79
2019-02-16T14:26:42.770Z,19.75
2019-02-16T14:29:11.866Z,19.74
2019-02-16T14:31:41.026Z,19.71
2019-02-16T14:34:10.200Z,19.70
2019-02-16T14:36:39.225Z,19.66
2019-02-16T14:39:28.298Z,19.70
2019-02-16T14:41:57.298Z,19.70
2019-02-16T14:44:26.341Z,19.69
2019-02-16T14:46:55.904Z,19.69
2019-02-16T14:49:25.259Z,19.66
2019-02-16T14:51:54.301Z,19.64
2019-02-16T14:54:23.192Z,19.63
2019-02-16T14:56:52.155Z,19.61
2019-02-16T14:59:21.069Z,19.59
2019-02-16T15:01:49.929Z,19.57
2019-02-16T15:04:18.887Z,19.56
2019-02-16T15:06:47.753Z,19.57
2019-02-16T15:09:16.754Z,19.55
2019-02-16T15:11:45.579Z,19.53
2019-02-16T15:14:14.536Z,19.52
2019-02-16T15:16:43.657Z,19.50
2019-02-16T15:19:13.195Z,19.46
2019-02-16T15:21:42.142Z,19.44
2019-02-16T15:24:11.032Z,19.40
2019-02-16T15:26:40.159Z,19.36
2019-02-16T15:29:09.125Z,19.33
2019-02-16T15:31:38.027Z,19.29
2019-02-16T15:34:07.007Z,19.27
2019-02-16T15:36:35.920Z,19.27
2019-02-16T15:39:05.901Z,19.25
2019-02-16T15:41:34.736Z,19.21
2019-02-16T15:44:03.588Z,19.18
2019-02-16T15:46:32.415Z,19.16
2019-02-16T15:49:01.246Z,19.13
2019-02-16T15:51:30.080Z,19.11
2019-02-16T15:53:59.044Z,19.08
2019-02-16T15:56:27.958Z,19.06
2019-02-16T15:58:56.930Z,19.03
2019-02-16T16:01:25.776Z,19.00
2019-02-16T16:03:54.854Z,18.98
2019-02-16T16:06:23.762Z,18.99
2019-02-16T16:09:14.712Z,18.99
2019-02-16T16:11:48.405Z,18.97
2019-02-16T16:14:39.317Z,18.93
2019-02-16T16:17:39.422Z,18.91
2019-02-16T16:20:36.530Z,18.88
2019-02-16T16:23:20.435Z,18.91
2019-02-16T16:25:58.935Z,18.89
2019-02-16T16:28:43.786Z,18.91
2019-02-16T16:31:32.329Z,18.97
2019-02-16T16:34:32.625Z,19.05
2019-02-16T16:37:23.302Z,19.12
2019-02-16T16:40:10.578Z,19.22
2019-02-16T16:43:22.529Z,19.34
2019-02-16T16:46:10.459Z,19.48
2019-02-16T16:49:01.100Z,19.63
2019-02-16T16:51:51.809Z,19.78
2019-02-16T16:54:42.405Z,19.67
2019-02-16T16:57:39.373Z,20.17
2019-02-16T17:00:26.061Z,20.36
2019-02-16T17:03:17.591Z,20.56
2019-02-16T17:05:59.458Z,20.76
2019-02-16T17:08:47.593Z,20.95
2019-02-16T17:11:35.952Z,21.11
2019-02-16T17:14:24.938Z,21.30
2019-02-16T17:17:11.231Z,21.44
2019-02-16T17:19:59.538Z,21.57
2019-02-16T17:22:46.120Z,21.68
2019-02-16T17:25:34.094Z,21.75
2019-02-16T17:28:25.104Z,21.80
2019-02-16T17:31:07.248Z,21.82
2019-02-16T17:34:01.172Z,21.83
2019-02-16T17:36:55.362Z,21.83
2019-02-16T17:39:37.313Z,22.00
2019-02-16T17:42:28.041Z,22.34
2019-02-16T17:45:10.341Z,22.75
2019-02-16T17:48:04.657Z,23.17
2019-02-16T17:50:55.513Z,23.47
2019-02-16T17:53:42.094Z,23.83
2019-02-16T17:56:16.187Z,24.15
2019-02-16T17:59:13.150Z,24.44
2019-02-16T18:02:10.356Z,24.65
2019-02-16T18:05:04.065Z,24.82
2019-02-16T18:07:57.783Z,24.89
2019-02-16T18:11:03.915Z,24.83
2019-02-16T18:13:46.210Z,24.79
2019-02-16T18:16:25.000Z,24.72
2019-02-16T18:19:08.244Z,24.62
2019-02-16T18:21:46.304Z,24.50
2019-02-16T18:24:36.532Z,24.40
2019-02-16T18:27:42.886Z,24.29
2019-02-16T18:30:29.530Z,24.14
2019-02-16T18:33:16.469Z,24.00
2019-02-16T18:36:04.356Z,23.85
2019-02-16T18:38:55.082Z,23.67
2019-02-16T18:42:01.077Z,23.53
2019-02-16T18:45:01.113Z,23.38
2019-02-16T18:47:43.864Z,23.17
2019-02-16T18:50:31.790Z,23.11
2019-02-16T18:53:23.262Z,23.01
2019-02-16T18:56:14.235Z,22.99
2019-02-16T18:58:52.707Z,23.03
2019-02-16T19:01:41.593Z,23.16
2019-02-16T19:04:35.850Z,23.37
2019-02-16T19:07:22.265Z,23.56
2019-02-16T19:10:10.144Z,23.76
2019-02-16T19:12:57.582Z,23.92
2019-02-16T19:15:38.028Z,24.07
2019-02-16T19:18:18.052Z,24.16
2019-02-16T19:21:05.201Z,24.15
2019-02-16T19:23:51.185Z,24.24
2019-02-16T19:26:41.931Z,24.29
2019-02-16T19:29:32.527Z,24.31
2019-02-16T19:32:20.294Z,24.34
2019-02-16T19:35:06.914Z,24.35
2019-02-16T19:37:42.461Z,24.38
2019-02-16T19:40:32.163Z,24.39
2019-02-16T19:43:20.323Z,24.39
2019-02-16T19:46:03.400Z,24.40
2019-02-16T19:48:58.229Z,24.39
2019-02-16T19:51:37.623Z,24.39
2019-02-16T19:54:17.599Z,24.37
2019-02-16T19:56:53.540Z,24.34
2019-02-16T19:59:44.975Z,24.33
2019-02-16T20:02:30.731Z,24.30
2019-02-16T20:05:23.299Z,24.27
2019-02-16T20:08:14.811Z,24.26
2019-02-16T20:11:03.119Z,24.22
2019-02-16T20:13:51.247Z,24.17
2019-02-16T20:16:29.844Z,24.12
2019-02-16T20:19:17.481Z,24.06
2019-02-16T20:21:58.127Z,24.01
2019-02-16T20:24:55.780Z,23.95
2019-02-16T20:27:46.992Z,23.91
2019-02-16T20:30:31.122Z,23.84
2019-02-16T20:33:18.055Z,23.79
2019-02-16T20:36:05.390Z,23.71
2019-02-16T20:38:56.444Z,23.69
2019-02-16T20:41:39.276Z,23.65
2019-02-16T20:44:21.929Z,23.71
2019-02-16T20:47:02.023Z,23.92
2019-02-16T20:49:55.798Z,24.12
2019-02-16T20:52:49.967Z,24.27
2019-02-16T20:55:43.960Z,24.50
2019-02-16T20:58:32.115Z,24.75
2019-02-16T21:01:26.290Z,24.96
2019-02-16T21:04:12.896Z,25.11
2019-02-16T21:07:13.285Z,25.22
2019-02-16T21:09:54.873Z,25.30
2019-02-16T21:12:45.887Z,25.39
2019-02-16T21:15:25.735Z,25.48
2019-02-16T21:18:28.995Z,25.54
2019-02-16T21:21:12.236Z,25.57
2019-02-16T21:23:58.688Z,25.59
2019-02-16T21:26:46.575Z,25.62
2019-02-16T21:29:31.595Z,25.65
2019-02-16T21:32:18.169Z,25.69
2019-02-16T21:34:56.614Z,25.74
2019-02-16T21:37:59.725Z,25.75
2019-02-16T21:40:53.628Z,25.75
2019-02-16T21:43:39.624Z,25.74
2019-02-16T21:46:26.384Z,25.72
2019-02-16T21:49:13.576Z,25.69
2019-02-16T21:51:50.542Z,25.64
2019-02-16T21:54:26.211Z,25.57
2019-02-16T21:57:06.659Z,25.54
2019-02-16T21:59:54.594Z,25.48
2019-02-16T22:02:32.277Z,25.43
2019-02-16T22:05:10.877Z,25.37
2019-02-16T22:07:52.551Z,25.31
2019-02-16T22:10:41.187Z,25.25
2019-02-16T22:13:10.192Z,25.20
2019-02-16T22:15:39.531Z,25.14
2019-02-16T22:18:08.361Z,25.08
2019-02-16T22:20:37.195Z,25.02
2019-02-16T22:23:06.025Z,24.97
2019-02-16T22:25:34.856Z,24.84
2019-02-16T22:28:03.733Z,24.75
2019-02-16T22:30:32.657Z,24.65
2019-02-16T22:33:01.814Z,24.56
2019-02-16T22:35:30.629Z,24.46
2019-02-16T22:37:59.614Z,24.37
2019-02-16T22:40:28.492Z,24.28
2019-02-16T22:42:57.502Z,24.20
2019-02-16T22:45:26.413Z,24.13
2019-02-16T22:47:55.155Z,24.06
2019-02-16T22:50:24.058Z,24.00
2019-02-16T22:52:52.901Z,23.95
2019-02-16T22:55:21.926Z,23.87
2019-02-16T22:57:50.849Z,23.81
2019-02-16T23:00:37.377Z,23.77
2019-02-16T23:03:07.859Z,23.68
2019-02-16T23:05:36.741Z,23.62
2019-02-16T23:08:05.614Z,23.55
2019-02-16T23:10:34.449Z,23.51
2019-02-16T23:13:03.388Z,23.46
2019-02-16T23:15:32.284Z,23.40
2019-02-16T23:18:01.276Z,23.36
2019-02-16T23:20:30.179Z,23.32
2019-02-16T23:22:59.097Z,23.27
2019-02-16T23:25:27.997Z,23.21
2019-02-16T23:27:56.824Z,23.18
2019-02-16T23:30:25.775Z,23.14
2019-02-16T23:32:56.885Z,23.09
2019-02-16T23:35:25.136Z,23.07
2019-02-16T23:37:54.073Z,23.03
2019-02-16T23:40:22.934Z,22.97
2019-02-16T23:42:51.865Z,22.92
2019-02-16T23:45:20.628Z,22.88
2019-02-16T23:47:49.537Z,22.85
2019-02-16T23:50:18.404Z,22.78
2019-02-16T23:52:47.520Z,22.75
2019-02-16T23:55:16.382Z,22.70
2019-02-16T23:57:45.356Z,22.66
